sensor_id;sensor_type;location;lat;lon;timestamp;P1;durP1;ratioP1;P2;durP2;ratioP2
69910;SDS011;63555;49.920;17.868;2023-02-22T00:02:31;11.20;;;3.67;;
69910;SDS011;63555;49.920;17.868;2023-02-22T00:07:33;11.07;;;4.00;;
69910;SDS011;63555;49.920;17.868;2023-02-22T00:12:34;13.30;;;3.85;;
69910;SDS011;63555;49.920;17.868;2023-02-22T00:17:35;12.67;;;3.90;;
69910;SDS011;63555;49.920;17.868;2023-02-22T00:22:35;9.60;;;3.90;;
69910;SDS011;63555;49.920;17.868;2023-02-22T00:27:36;15.10;;;5.05;;
69910;SDS011;63555;49.920;17.868;2023-02-22T00:32:37;15.40;;;4.83;;
69910;SDS011;63555;49.920;17.868;2023-02-22T00:37:37;13.33;;;4.90;;
69910;SDS011;63555;49.920;17.868;2023-02-22T00:42:40;20.70;;;5.23;;
69910;SDS011;63555;49.920;17.868;2023-02-22T00:47:41;16.07;;;5.10;;
69910;SDS011;63555;49.920;17.868;2023-02-22T00:52:41;14.43;;;5.07;;
69910;SDS011;63555;49.920;17.868;2023-02-22T00:57:42;20.13;;;7.47;;
69910;SDS011;63555;49.920;17.868;2023-02-22T01:02:42;18.20;;;6.38;;
69910;SDS011;63555;49.920;17.868;2023-02-22T01:07:42;21.63;;;7.93;;
69910;SDS011;63555;49.920;17.868;2023-02-22T01:12:43;19.95;;;6.57;;
69910;SDS011;63555;49.920;17.868;2023-02-22T01:17:43;17.40;;;6.10;;
69910;SDS011;63555;49.920;17.868;2023-02-22T01:22:45;17.23;;;5.00;;
69910;SDS011;63555;49.920;17.868;2023-02-22T01:27:46;15.10;;;5.22;;
69910;SDS011;63555;49.920;17.868;2023-02-22T01:32:49;14.93;;;4.85;;
69910;SDS011;63555;49.920;17.868;2023-02-22T01:37:52;14.07;;;5.63;;
69910;SDS011;63555;49.920;17.868;2023-02-22T01:42:53;21.63;;;6.30;;
69910;SDS011;63555;49.920;17.868;2023-02-22T01:53:00;11.33;;;4.47;;
69910;SDS011;63555;49.920;17.868;2023-02-22T01:58:01;17.42;;;4.53;;
69910;SDS011;63555;49.920;17.868;2023-02-22T02:03:04;13.52;;;4.65;;
69910;SDS011;63555;49.920;17.868;2023-02-22T02:08:15;13.50;;;4.10;;
69910;SDS011;63555;49.920;17.868;2023-02-22T02:13:19;11.35;;;2.85;;
69910;SDS011;63555;49.920;17.868;2023-02-22T02:18:19;12.63;;;2.70;;
69910;SDS011;63555;49.920;17.868;2023-02-22T02:34:00;10.90;;;2.70;;
69910;SDS011;63555;49.920;17.868;2023-02-22T02:39:10;14.48;;;3.63;;
69910;SDS011;63555;49.920;17.868;2023-02-22T02:44:32;12.47;;;2.63;;
69910;SDS011;63555;49.920;17.868;2023-02-22T02:49:39;10.73;;;2.97;;
69910;SDS011;63555;49.920;17.868;2023-02-22T02:54:46;17.88;;;2.67;;
69910;SDS011;63555;49.920;17.868;2023-02-22T02:59:47;16.15;;;3.10;;
69910;SDS011;63555;49.920;17.868;2023-02-22T03:10:10;17.60;;;2.28;;
69910;SDS011;63555;49.920;17.868;2023-02-22T03:15:43;13.33;;;2.40;;
69910;SDS011;63555;49.920;17.868;2023-02-22T03:20:54;12.32;;;1.90;;
69910;SDS011;63555;49.920;17.868;2023-02-22T03:25:58;13.50;;;2.30;;
69910;SDS011;63555;49.920;17.868;2023-02-22T03:31:05;14.88;;;1.92;;
69910;SDS011;63555;49.920;17.868;2023-02-22T03:36:12;12.00;;;1.95;;
69910;SDS011;63555;49.920;17.868;2023-02-22T03:41:20;17.40;;;2.93;;
69910;SDS011;63555;49.920;17.868;2023-02-22T03:46:24;10.75;;;2.20;;
69910;SDS011;63555;49.920;17.868;2023-02-22T03:51:28;19.80;;;2.43;;
69910;SDS011;63555;49.920;17.868;2023-02-22T03:56:32;15.53;;;2.37;;
69910;SDS011;63555;49.920;17.868;2023-02-22T04:01:38;21.48;;;2.15;;
69910;SDS011;63555;49.920;17.868;2023-02-22T04:06:38;16.37;;;2.00;;
69910;SDS011;63555;49.920;17.868;2023-02-22T04:11:39;11.77;;;2.30;;
69910;SDS011;63555;49.920;17.868;2023-02-22T04:16:39;12.30;;;2.17;;
69910;SDS011;63555;49.920;17.868;2023-02-22T04:21:39;16.40;;;2.27;;
69910;SDS011;63555;49.920;17.868;2023-02-22T04:26:40;18.63;;;2.60;;
69910;SDS011;63555;49.920;17.868;2023-02-22T04:31:40;6.10;;;1.97;;
69910;SDS011;63555;49.920;17.868;2023-02-22T04:36:40;12.70;;;2.27;;
69910;SDS011;63555;49.920;17.868;2023-02-22T04:41:44;12.98;;;1.73;;
69910;SDS011;63555;49.920;17.868;2023-02-22T04:46:44;13.87;;;2.03;;
69910;SDS011;63555;49.920;17.868;2023-02-22T04:51:45;11.25;;;1.95;;
69910;SDS011;63555;49.920;17.868;2023-02-22T04:56:45;10.10;;;1.60;;
69910;SDS011;63555;49.920;17.868;2023-02-22T05:01:46;15.43;;;1.67;;
69910;SDS011;63555;49.920;17.868;2023-02-22T05:06:46;14.30;;;2.10;;
69910;SDS011;63555;49.920;17.868;2023-02-22T05:11:47;21.73;;;2.37;;
69910;SDS011;63555;49.920;17.868;2023-02-22T05:16:49;15.75;;;1.80;;
69910;SDS011;63555;49.920;17.868;2023-02-22T05:21:49;9.03;;;1.60;;
69910;SDS011;63555;49.920;17.868;2023-02-22T05:26:49;13.77;;;2.27;;
69910;SDS011;63555;49.920;17.868;2023-02-22T05:31:50;18.47;;;1.90;;
69910;SDS011;63555;49.920;17.868;2023-02-22T05:36:50;11.53;;;1.83;;
69910;SDS011;63555;49.920;17.868;2023-02-22T05:41:51;15.10;;;3.47;;
69910;SDS011;63555;49.920;17.868;2023-02-22T05:46:51;15.77;;;2.37;;
69910;SDS011;63555;49.920;17.868;2023-02-22T05:51:51;18.30;;;2.67;;
69910;SDS011;63555;49.920;17.868;2023-02-22T05:56:52;16.20;;;2.07;;
69910;SDS011;63555;49.920;17.868;2023-02-22T06:01:52;11.30;;;2.20;;
69910;SDS011;63555;49.920;17.868;2023-02-22T06:06:52;13.37;;;2.50;;
69910;SDS011;63555;49.920;17.868;2023-02-22T06:11:53;16.13;;;2.70;;
69910;SDS011;63555;49.920;17.868;2023-02-22T06:16:54;16.63;;;3.10;;
69910;SDS011;63555;49.920;17.868;2023-02-22T06:21:56;17.23;;;2.73;;
69910;SDS011;63555;49.920;17.868;2023-02-22T06:26:59;12.73;;;2.83;;
69910;SDS011;63555;49.920;17.868;2023-02-22T06:32:02;20.42;;;2.65;;
69910;SDS011;63555;49.920;17.868;2023-02-22T06:37:02;20.87;;;2.67;;
69910;SDS011;63555;49.920;17.868;2023-02-22T06:42:02;19.63;;;2.90;;
69910;SDS011;63555;49.920;17.868;2023-02-22T06:47:03;13.07;;;2.53;;
69910;SDS011;63555;49.920;17.868;2023-02-22T06:52:04;21.20;;;2.87;;
69910;SDS011;63555;49.920;17.868;2023-02-22T06:57:06;16.00;;;2.53;;
69910;SDS011;63555;49.920;17.868;2023-02-22T07:02:08;16.90;;;2.85;;
69910;SDS011;63555;49.920;17.868;2023-02-22T07:07:10;12.48;;;2.35;;
69910;SDS011;63555;49.920;17.868;2023-02-22T07:12:10;8.60;;;1.83;;
69910;SDS011;63555;49.920;17.868;2023-02-22T07:17:11;12.82;;;2.45;;
69910;SDS011;63555;49.920;17.868;2023-02-22T07:22:11;16.87;;;3.17;;
69910;SDS011;63555;49.920;17.868;2023-02-22T07:27:11;15.37;;;2.07;;
69910;SDS011;63555;49.920;17.868;2023-02-22T07:32:12;15.83;;;2.50;;
69910;SDS011;63555;49.920;17.868;2023-02-22T07:37:13;16.33;;;2.57;;
69910;SDS011;63555;49.920;17.868;2023-02-22T07:42:13;10.77;;;2.00;;
69910;SDS011;63555;49.920;17.868;2023-02-22T07:47:13;13.73;;;2.87;;
69910;SDS011;63555;49.920;17.868;2023-02-22T07:52:14;11.70;;;3.47;;
69910;SDS011;63555;49.920;17.868;2023-02-22T07:57:14;13.43;;;2.60;;
69910;SDS011;63555;49.920;17.868;2023-02-22T08:02:15;18.47;;;2.50;;
69910;SDS011;63555;49.920;17.868;2023-02-22T08:07:16;12.27;;;2.97;;
69910;SDS011;63555;49.920;17.868;2023-02-22T08:12:16;11.40;;;2.60;;
69910;SDS011;63555;49.920;17.868;2023-02-22T08:17:17;11.67;;;2.20;;
69910;SDS011;63555;49.920;17.868;2023-02-22T08:22:17;10.70;;;2.30;;
69910;SDS011;63555;49.920;17.868;2023-02-22T08:27:21;13.07;;;2.10;;
69910;SDS011;63555;49.920;17.868;2023-02-22T08:32:26;15.02;;;2.00;;
69910;SDS011;63555;49.920;17.868;2023-02-22T08:37:26;7.67;;;2.20;;
69910;SDS011;63555;49.920;17.868;2023-02-22T08:42:26;10.85;;;2.13;;
69910;SDS011;63555;49.920;17.868;2023-02-22T08:47:27;9.57;;;2.07;;
69910;SDS011;63555;49.920;17.868;2023-02-22T08:52:27;14.60;;;2.40;;
69910;SDS011;63555;49.920;17.868;2023-02-22T08:57:27;21.83;;;2.90;;
69910;SDS011;63555;49.920;17.868;2023-02-22T09:02:28;12.77;;;2.40;;
69910;SDS011;63555;49.920;17.868;2023-02-22T09:07:28;13.17;;;2.53;;
69910;SDS011;63555;49.920;17.868;2023-02-22T09:12:29;17.10;;;3.40;;
69910;SDS011;63555;49.920;17.868;2023-02-22T09:17:30;14.57;;;2.67;;
69910;SDS011;63555;49.920;17.868;2023-02-22T09:22:30;10.13;;;2.27;;
69910;SDS011;63555;49.920;17.868;2023-02-22T09:27:31;16.85;;;4.05;;
69910;SDS011;63555;49.920;17.868;2023-02-22T09:32:31;12.57;;;2.60;;
69910;SDS011;63555;49.920;17.868;2023-02-22T09:37:32;10.50;;;2.10;;
69910;SDS011;63555;49.920;17.868;2023-02-22T09:42:33;8.90;;;2.13;;
69910;SDS011;63555;49.920;17.868;2023-02-22T09:47:47;16.17;;;3.60;;
69910;SDS011;63555;49.920;17.868;2023-02-22T09:53:02;12.82;;;3.15;;
69910;SDS011;63555;49.920;17.868;2023-02-22T09:58:18;12.47;;;2.70;;
69910;SDS011;63555;49.920;17.868;2023-02-22T10:03:41;14.18;;;3.10;;
69910;SDS011;63555;49.920;17.868;2023-02-22T10:09:10;15.05;;;3.00;;
69910;SDS011;63555;49.920;17.868;2023-02-22T10:25:07;13.60;;;2.72;;
69910;SDS011;63555;49.920;17.868;2023-02-22T10:30:16;14.77;;;2.92;;
69910;SDS011;63555;49.920;17.868;2023-02-22T10:35:24;16.95;;;3.30;;
69910;SDS011;63555;49.920;17.868;2023-02-22T10:40:27;18.40;;;3.20;;
69910;SDS011;63555;49.920;17.868;2023-02-22T10:45:33;13.73;;;3.10;;
69910;SDS011;63555;49.920;17.868;2023-02-22T10:50:39;20.70;;;3.03;;
69910;SDS011;63555;49.920;17.868;2023-02-22T11:01:16;11.95;;;3.08;;
69910;SDS011;63555;49.920;17.868;2023-02-22T11:06:28;15.90;;;3.97;;
69910;SDS011;63555;49.920;17.868;2023-02-22T11:11:29;10.13;;;3.13;;
69910;SDS011;63555;49.920;17.868;2023-02-22T11:16:31;11.37;;;2.53;;
69910;SDS011;63555;49.920;17.868;2023-02-22T11:21:35;10.55;;;3.03;;
69910;SDS011;63555;49.920;17.868;2023-02-22T11:26:43;16.30;;;3.47;;
69910;SDS011;63555;49.920;17.868;2023-02-22T11:31:48;14.95;;;2.95;;
69910;SDS011;63555;49.920;17.868;2023-02-22T11:36:49;13.52;;;2.80;;
69910;SDS011;63555;49.920;17.868;2023-02-22T11:41:50;16.47;;;3.20;;
69910;SDS011;63555;49.920;17.868;2023-02-22T11:46:51;10.33;;;2.50;;
69910;SDS011;63555;49.920;17.868;2023-02-22T12:13:18;13.18;;;3.22;;
69910;SDS011;63555;49.920;17.868;2023-02-22T12:18:36;10.57;;;2.60;;
69910;SDS011;63555;49.920;17.868;2023-02-22T12:29:08;15.85;;;2.78;;
69910;SDS011;63555;49.920;17.868;2023-02-22T12:39:39;12.38;;;3.22;;
69910;SDS011;63555;49.920;17.868;2023-02-22T12:44:51;9.43;;;2.60;;
69910;SDS011;63555;49.920;17.868;2023-02-22T12:50:02;9.82;;;2.33;;
69910;SDS011;63555;49.920;17.868;2023-02-22T12:55:19;11.15;;;2.35;;
69910;SDS011;63555;49.920;17.868;2023-02-22T13:05:40;11.73;;;2.65;;
69910;SDS011;63555;49.920;17.868;2023-02-22T13:11:03;8.53;;;2.63;;
69910;SDS011;63555;49.920;17.868;2023-02-22T13:16:08;10.35;;;2.40;;
69910;SDS011;63555;49.920;17.868;2023-02-22T13:21:15;8.32;;;2.22;;
69910;SDS011;63555;49.920;17.868;2023-02-22T13:26:27;7.10;;;1.83;;
69910;SDS011;63555;49.920;17.868;2023-02-22T13:52:39;14.43;;;2.77;;
69910;SDS011;63555;49.920;17.868;2023-02-22T13:57:45;12.05;;;2.50;;
69910;SDS011;63555;49.920;17.868;2023-02-22T14:13:18;9.88;;;2.38;;
69910;SDS011;63555;49.920;17.868;2023-02-22T14:18:21;8.52;;;2.40;;
69910;SDS011;63555;49.920;17.868;2023-02-22T14:33:58;5.33;;;1.87;;
69910;SDS011;63555;49.920;17.868;2023-02-22T14:39:07;7.53;;;2.25;;
69910;SDS011;63555;49.920;17.868;2023-02-22T14:44:13;10.95;;;1.83;;
69910;SDS011;63555;49.920;17.868;2023-02-22T14:49:20;9.48;;;2.47;;
69910;SDS011;63555;49.920;17.868;2023-02-22T15:00:22;9.13;;;1.97;;
69910;SDS011;63555;49.920;17.868;2023-02-22T15:05:33;7.28;;;1.92;;
69910;SDS011;63555;49.920;17.868;2023-02-22T15:15:46;9.98;;;2.20;;
69910;SDS011;63555;49.920;17.868;2023-02-22T15:20:49;7.85;;;2.10;;
69910;SDS011;63555;49.920;17.868;2023-02-22T15:25:55;9.63;;;2.50;;
69910;SDS011;63555;49.920;17.868;2023-02-22T15:31:16;13.02;;;2.88;;
69910;SDS011;63555;49.920;17.868;2023-02-22T15:36:26;11.97;;;2.53;;
69910;SDS011;63555;49.920;17.868;2023-02-22T15:41:31;7.20;;;2.03;;
69910;SDS011;63555;49.920;17.868;2023-02-22T15:46:32;12.13;;;2.35;;
69910;SDS011;63555;49.920;17.868;2023-02-22T15:51:33;13.37;;;3.13;;
69910;SDS011;63555;49.920;17.868;2023-02-22T15:56:36;12.55;;;3.03;;
69910;SDS011;63555;49.920;17.868;2023-02-22T16:01:37;9.77;;;3.17;;
69910;SDS011;63555;49.920;17.868;2023-02-22T16:06:39;15.98;;;3.33;;
69910;SDS011;63555;49.920;17.868;2023-02-22T16:11:43;19.88;;;4.05;;
69910;SDS011;63555;49.920;17.868;2023-02-22T16:16:44;11.75;;;2.97;;
69910;SDS011;63555;49.920;17.868;2023-02-22T16:32:11;11.05;;;3.10;;
69910;SDS011;63555;49.920;17.868;2023-02-22T16:37:18;10.35;;;3.28;;
69910;SDS011;63555;49.920;17.868;2023-02-22T16:42:21;11.82;;;4.05;;
69910;SDS011;63555;49.920;17.868;2023-02-22T16:47:24;12.60;;;4.35;;
69910;SDS011;63555;49.920;17.868;2023-02-22T16:52:25;16.00;;;5.03;;
69910;SDS011;63555;49.920;17.868;2023-02-22T16:57:27;16.27;;;4.73;;
69910;SDS011;63555;49.920;17.868;2023-02-22T17:02:30;20.88;;;5.82;;
69910;SDS011;63555;49.920;17.868;2023-02-22T17:07:31;27.33;;;7.07;;
69910;SDS011;63555;49.920;17.868;2023-02-22T17:12:32;20.73;;;6.43;;
69910;SDS011;63555;49.920;17.868;2023-02-22T17:17:33;19.47;;;6.73;;
69910;SDS011;63555;49.920;17.868;2023-02-22T17:22:33;19.73;;;7.13;;
69910;SDS011;63555;49.920;17.868;2023-02-22T17:27:33;18.30;;;7.40;;
69910;SDS011;63555;49.920;17.868;2023-02-22T17:32:34;27.80;;;10.50;;
69910;SDS011;63555;49.920;17.868;2023-02-22T17:37:34;30.53;;;10.93;;
69910;SDS011;63555;49.920;17.868;2023-02-22T17:42:34;33.83;;;12.53;;
69910;SDS011;63555;49.920;17.868;2023-02-22T17:47:35;26.67;;;10.93;;
69910;SDS011;63555;49.920;17.868;2023-02-22T17:52:35;30.77;;;12.57;;
69910;SDS011;63555;49.920;17.868;2023-02-22T17:57:36;27.98;;;11.15;;
69910;SDS011;63555;49.920;17.868;2023-02-22T18:02:43;30.63;;;12.87;;
69910;SDS011;63555;49.920;17.868;2023-02-22T18:07:44;32.95;;;12.13;;
69910;SDS011;63555;49.920;17.868;2023-02-22T18:12:45;29.57;;;11.50;;
69910;SDS011;63555;49.920;17.868;2023-02-22T18:17:51;27.23;;;12.13;;
69910;SDS011;63555;49.920;17.868;2023-02-22T18:22:51;34.17;;;13.57;;
69910;SDS011;63555;49.920;17.868;2023-02-22T18:27:53;36.43;;;12.57;;
69910;SDS011;63555;49.920;17.868;2023-02-22T18:32:54;32.17;;;12.25;;
69910;SDS011;63555;49.920;17.868;2023-02-22T18:37:54;30.90;;;10.87;;
69910;SDS011;63555;49.920;17.868;2023-02-22T18:42:54;30.17;;;10.20;;
69910;SDS011;63555;49.920;17.868;2023-02-22T18:47:55;28.30;;;10.70;;
69910;SDS011;63555;49.920;17.868;2023-02-22T18:52:55;35.73;;;14.10;;
69910;SDS011;63555;49.920;17.868;2023-02-22T18:57:55;33.60;;;12.00;;
69910;SDS011;63555;49.920;17.868;2023-02-22T19:02:56;36.20;;;13.83;;
69910;SDS011;63555;49.920;17.868;2023-02-22T19:07:58;46.65;;;17.92;;
69910;SDS011;63555;49.920;17.868;2023-02-22T19:12:59;34.43;;;13.93;;
69910;SDS011;63555;49.920;17.868;2023-02-22T19:18:00;44.33;;;15.30;;
69910;SDS011;63555;49.920;17.868;2023-02-22T19:23:00;38.03;;;14.37;;
69910;SDS011;63555;49.920;17.868;2023-02-22T19:28:01;57.03;;;17.55;;
69910;SDS011;63555;49.920;17.868;2023-02-22T19:33:01;46.33;;;16.90;;
69910;SDS011;63555;49.920;17.868;2023-02-22T19:38:03;44.33;;;15.33;;
69910;SDS011;63555;49.920;17.868;2023-02-22T19:43:04;39.37;;;14.93;;
69910;SDS011;63555;49.920;17.868;2023-02-22T19:48:04;45.43;;;16.23;;
69910;SDS011;63555;49.920;17.868;2023-02-22T19:53:05;47.63;;;17.00;;
69910;SDS011;63555;49.920;17.868;2023-02-22T19:58:06;46.85;;;18.55;;
69910;SDS011;63555;49.920;17.868;2023-02-22T20:03:07;44.37;;;16.20;;
69910;SDS011;63555;49.920;17.868;2023-02-22T20:08:12;46.05;;;16.85;;
69910;SDS011;63555;49.920;17.868;2023-02-22T20:13:14;53.47;;;17.80;;
69910;SDS011;63555;49.920;17.868;2023-02-22T20:18:16;43.10;;;16.73;;
69910;SDS011;63555;49.920;17.868;2023-02-22T20:23:16;38.73;;;16.07;;
69910;SDS011;63555;49.920;17.868;2023-02-22T20:28:16;44.13;;;15.70;;
69910;SDS011;63555;49.920;17.868;2023-02-22T20:33:17;46.40;;;17.00;;
69910;SDS011;63555;49.920;17.868;2023-02-22T20:38:18;46.90;;;16.67;;
69910;SDS011;63555;49.920;17.868;2023-02-22T20:43:19;43.83;;;16.23;;
69910;SDS011;63555;49.920;17.868;2023-02-22T20:48:19;42.10;;;16.87;;
69910;SDS011;63555;49.920;17.868;2023-02-22T20:53:19;49.33;;;17.60;;
69910;SDS011;63555;49.920;17.868;2023-02-22T20:58:20;49.13;;;16.93;;
69910;SDS011;63555;49.920;17.868;2023-02-22T21:03:20;51.80;;;18.00;;
69910;SDS011;63555;49.920;17.868;2023-02-22T21:08:20;52.33;;;17.40;;
69910;SDS011;63555;49.920;17.868;2023-02-22T21:13:21;53.63;;;18.73;;
69910;SDS011;63555;49.920;17.868;2023-02-22T21:18:22;51.08;;;19.15;;
69910;SDS011;63555;49.920;17.868;2023-02-22T21:23:22;69.60;;;20.10;;
69910;SDS011;63555;49.920;17.868;2023-02-22T21:28:23;44.60;;;18.07;;
69910;SDS011;63555;49.920;17.868;2023-02-22T21:33:23;51.53;;;17.73;;
69910;SDS011;63555;49.920;17.868;2023-02-22T21:38:23;44.90;;;17.27;;
69910;SDS011;63555;49.920;17.868;2023-02-22T21:43:24;51.40;;;18.53;;
69910;SDS011;63555;49.920;17.868;2023-02-22T21:48:25;57.78;;;19.65;;
69910;SDS011;63555;49.920;17.868;2023-02-22T21:53:25;57.80;;;19.93;;
69910;SDS011;63555;49.920;17.868;2023-02-22T21:58:29;53.37;;;20.70;;
69910;SDS011;63555;49.920;17.868;2023-02-22T22:03:30;61.17;;;19.40;;
69910;SDS011;63555;49.920;17.868;2023-02-22T22:08:30;45.22;;;17.55;;
69910;SDS011;63555;49.920;17.868;2023-02-22T22:13:31;55.25;;;19.15;;
69910;SDS011;63555;49.920;17.868;2023-02-22T22:18:31;76.33;;;22.43;;
69910;SDS011;63555;49.920;17.868;2023-02-22T22:23:31;70.50;;;22.57;;
69910;SDS011;63555;49.920;17.868;2023-02-22T22:28:32;67.78;;;21.58;;
69910;SDS011;63555;49.920;17.868;2023-02-22T22:33:32;71.23;;;22.37;;
69910;SDS011;63555;49.920;17.868;2023-02-22T22:38:33;80.50;;;23.58;;
69910;SDS011;63555;49.920;17.868;2023-02-22T22:43:37;88.33;;;26.47;;
69910;SDS011;63555;49.920;17.868;2023-02-22T22:48:40;118.82;;;30.95;;
69910;SDS011;63555;49.920;17.868;2023-02-22T22:53:42;135.35;;;30.38;;
69910;SDS011;63555;49.920;17.868;2023-02-22T22:58:47;125.63;;;30.67;;
69910;SDS011;63555;49.920;17.868;2023-02-22T23:03:51;138.18;;;34.83;;
69910;SDS011;63555;49.920;17.868;2023-02-22T23:08:54;124.37;;;30.83;;
69910;SDS011;63555;49.920;17.868;2023-02-22T23:14:00;115.75;;;29.77;;
69910;SDS011;63555;49.920;17.868;2023-02-22T23:19:03;83.97;;;24.75;;
69910;SDS011;63555;49.920;17.868;2023-02-22T23:24:06;83.72;;;26.90;;
69910;SDS011;63555;49.920;17.868;2023-02-22T23:29:07;75.13;;;23.60;;
69910;SDS011;63555;49.920;17.868;2023-02-22T23:34:07;57.60;;;19.27;;
69910;SDS011;63555;49.920;17.868;2023-02-22T23:39:10;51.70;;;18.80;;
69910;SDS011;63555;49.920;17.868;2023-02-22T23:44:11;57.17;;;19.60;;
69910;SDS011;63555;49.920;17.868;2023-02-22T23:49:16;51.78;;;18.23;;
69910;SDS011;63555;49.920;17.868;2023-02-22T23:54:19;60.35;;;20.15;;
69910;SDS011;63555;49.920;17.868;2023-02-22T23:59:21;51.75;;;18.15;;
